Time;durP1;ratioP1;P1;durP2;ratioP2;P2;SDS_P1;SDS_P2;PMS_P1;PMS_P2;Temp;Humidity;BMP_temperature;BMP_pressure;BME280_temperature;BME280_humidity;BME280_pressure;Samples;Min_cycle;Max_cycle;Signal;HPM_P1;HPM_P2
2023/05/09 00:00:43;;;;;;;12.55;11.20;;;;;15.80;98812.00;;;;5038600;28;20418;-65
2023/05/09 00:03:11;;;;;;;15.68;11.68;;;;;15.80;98809.00;;;;5054310;28;20127;-65
2023/05/09 00:05:38;;;;;;;12.65;11.10;;;;;15.80;98800.00;;;;5054324;28;20064;-65
2023/05/09 00:08:04;;;;;;;13.68;11.00;;;;;15.80;98811.00;;;;5037865;28;20075;-66
2023/05/09 00:10:31;;;;;;;12.05;9.73;;;;;15.70;98806.00;;;;5055516;28;20048;-66
2023/05/09 00:12:58;;;;;;;11.95;10.85;;;;;15.50;98815.00;;;;5056652;28;20045;-66
2023/05/09 00:15:25;;;;;;;16.02;10.48;;;;;15.50;98808.00;;;;5056393;28;20103;-66
2023/05/09 00:17:53;;;;;;;10.90;9.80;;;;;15.70;98807.00;;;;5058595;28;20041;-66
2023/05/09 00:20:20;;;;;;;18.15;11.65;;;;;15.60;98810.00;;;;5058957;28;20120;-66
2023/05/09 00:22:47;;;;;;;12.70;10.70;;;;;15.50;98802.00;;;;5058589;28;20041;-66
2023/05/09 00:25:13;;;;;;;13.20;11.88;;;;;15.50;98805.00;;;;5058581;28;20052;-65
2023/05/09 00:27:40;;;;;;;13.93;11.23;;;;;15.50;98796.00;;;;5058106;28;20033;-65
2023/05/09 00:30:07;;;;;;;14.55;11.68;;;;;15.40;98791.00;;;;5055794;28;20047;-66
2023/05/09 00:32:34;;;;;;;12.52;11.32;;;;;15.40;98784.00;;;;5054298;28;20041;-66
2023/05/09 00:35:01;;;;;;;16.73;11.65;;;;;15.30;98781.00;;;;5053988;28;20056;-66
2023/05/09 00:37:29;;;;;;;21.55;12.13;;;;;15.30;98779.00;;;;5055423;28;20041;-67
2023/05/09 00:39:56;;;;;;;12.35;11.05;;;;;15.30;98783.00;;;;5054761;28;20037;-65
2023/05/09 00:42:22;;;;;;;13.07;10.93;;;;;15.40;98779.00;;;;5054655;28;20132;-66
2023/05/09 00:44:49;;;;;;;12.82;11.52;;;;;15.40;98771.00;;;;5055952;28;20490;-67
2023/05/09 00:47:16;;;;;;;13.13;11.45;;;;;15.30;98769.00;;;;5056581;28;20052;-65
2023/05/09 00:49:42;;;;;;;15.90;11.82;;;;;15.40;98762.00;;;;5054088;28;20052;-67
2023/05/09 00:52:09;;;;;;;11.57;10.27;;;;;15.40;98765.00;;;;5054539;28;20140;-66
2023/05/09 00:54:36;;;;;;;13.65;11.93;;;;;15.40;98760.00;;;;5055860;28;20647;-66
2023/05/09 00:57:02;;;;;;;13.50;10.98;;;;;15.30;98757.00;;;;5054647;28;20100;-66
2023/05/09 00:59:29;;;;;;;12.68;11.13;;;;;15.20;98744.00;;;;5056729;28;20036;-66
2023/05/09 01:01:56;;;;;;;12.43;11.15;;;;;15.00;98745.00;;;;5056803;28;20065;-66
2023/05/09 01:04:23;;;;;;;12.73;10.73;;;;;15.00;98739.00;;;;5055733;28;20080;-64
2023/05/09 01:07:01;;;;;;;11.82;10.65;;;;;15.00;98743.00;;;;5052208;28;20049;-64
2023/05/09 01:09:34;;;;;;;14.65;11.13;;;;;15.10;98746.00;;;;5053334;28;20045;-64
2023/05/09 01:12:34;;;;;;;13.82;12.43;;;;;15.10;98739.00;;;;5053378;28;20148;-65
2023/05/09 01:15:12;;;;;;;16.08;12.73;;;;;15.10;98746.00;;;;5036947;28;20060;-65
2023/05/09 01:17:58;;;;;;;16.90;13.02;;;;;15.10;98742.00;;;;5054199;28;20055;-64
2023/05/09 01:20:46;;;;;;;14.82;12.70;;;;;15.10;98739.00;;;;5052765;28;20147;-63
2023/05/09 01:23:38;;;;;;;15.07;12.10;;;;;15.10;98740.00;;;;5053904;28;20037;-63
2023/05/09 01:26:20;;;;;;;14.70;11.95;;;;;15.20;98738.00;;;;5052709;28;20541;-66
2023/05/09 01:29:08;;;;;;;13.45;12.05;;;;;15.30;98735.00;;;;5053880;28;20418;-66
2023/05/09 01:31:39;;;;;;;12.32;11.02;;;;;15.20;98727.00;;;;5053945;28;20045;-65
2023/05/09 01:34:08;;;;;;;13.40;12.00;;;;;15.10;98733.00;;;;5053803;28;20421;-65
2023/05/09 01:36:37;;;;;;;12.30;11.00;;;;;15.10;98731.00;;;;5053916;28;20060;-65
2023/05/09 01:39:05;;;;;;;12.63;11.25;;;;;15.20;98725.00;;;;5052417;28;20139;-65
2023/05/09 01:41:36;;;;;;;13.50;11.98;;;;;15.10;98728.00;;;;5052770;28;20049;-66
2023/05/09 01:44:06;;;;;;;13.82;11.98;;;;;15.10;98723.00;;;;5052722;28;20063;-65
2023/05/09 01:46:34;;;;;;;14.95;12.15;;;;;15.20;98732.00;;;;5052570;28;20036;-65
2023/05/09 01:49:02;;;;;;;11.93;10.68;;;;;15.30;98727.00;;;;5053882;28;20096;-65
2023/05/09 01:51:30;;;;;;;13.02;11.35;;;;;15.40;98728.00;;;;5054194;28;20414;-65
2023/05/09 01:53:58;;;;;;;12.13;10.82;;;;;15.50;98733.00;;;;5053896;28;20052;-66
2023/05/09 01:56:26;;;;;;;12.70;11.40;;;;;15.50;98728.00;;;;5053419;28;20045;-64
2023/05/09 01:58:55;;;;;;;12.88;11.52;;;;;15.40;98730.00;;;;5051951;28;20409;-64
2023/05/09 02:01:23;;;;;;;12.68;11.35;;;;;15.40;98730.00;;;;5052222;28;20049;-64
2023/05/09 02:03:53;;;;;;;13.88;12.25;;;;;15.40;98728.00;;;;5052240;28;20041;-64
2023/05/09 02:06:23;;;;;;;13.32;11.93;;;;;15.40;98733.00;;;;5053292;28;20033;-66
2023/05/09 02:08:50;;;;;;;13.25;11.30;;;;;15.40;98723.00;;;;5035250;28;20106;-66
2023/05/09 02:11:16;;;;;;;15.45;11.52;;;;;15.40;98729.00;;;;5051991;28;20064;-66
2023/05/09 02:13:43;;;;;;;12.32;11.02;;;;;15.30;98724.00;;;;5053455;28;20441;-66
2023/05/09 02:16:11;;;;;;;16.00;13.02;;;;;15.20;98711.00;;;;5052104;28;20045;-65
2023/05/09 02:18:37;;;;;;;13.95;12.18;;;;;15.10;98717.00;;;;5053523;28;20048;-65
2023/05/09 02:21:05;;;;;;;12.73;11.40;;;;;15.20;98704.00;;;;5052699;28;20080;-64
2023/05/09 02:23:31;;;;;;;13.20;11.82;;;;;15.20;98714.00;;;;5053574;28;20041;-65
2023/05/09 02:25:58;;;;;;;13.90;10.75;;;;;15.20;98715.00;;;;5036021;28;20049;-65
2023/05/09 02:28:26;;;;;;;11.68;10.43;;;;;15.40;98720.00;;;;5052293;28;20517;-65
2023/05/09 02:30:55;;;;;;;12.63;10.43;;;;;15.40;98712.00;;;;5053218;28;20075;-66
2023/05/09 02:33:23;;;;;;;12.77;9.93;;;;;15.30;98717.00;;;;5052284;28;20041;-64
2023/05/09 02:35:50;;;;;;;11.32;10.13;;;;;15.30;98719.00;;;;5051965;28;20079;-65
2023/05/09 02:38:18;;;;;;;12.68;10.07;;;;;15.40;98714.00;;;;5052015;28;20045;-65
2023/05/09 02:40:46;;;;;;;12.10;10.90;;;;;15.40;98715.00;;;;5053077;28;20057;-64
2023/05/09 02:43:14;;;;;;;11.88;10.68;;;;;15.30;98713.00;;;;5051719;28;20398;-65
2023/05/09 02:45:40;;;;;;;17.42;10.40;;;;;15.10;98705.00;;;;5051364;28;20414;-65
2023/05/09 02:48:07;;;;;;;11.05;9.95;;;;;15.10;98708.00;;;;5051171;28;20571;-65
2023/05/09 02:50:37;;;;;;;11.00;9.90;;;;;15.20;98711.00;;;;5052294;28;20051;-65
2023/05/09 02:53:04;;;;;;;13.25;9.73;;;;;15.20;98706.00;;;;5061858;28;20037;-64
2023/05/09 02:55:31;;;;;;;11.63;10.13;;;;;15.20;98707.00;;;;5072155;28;20052;-65
2023/05/09 02:57:58;;;;;;;11.30;9.77;;;;;15.10;98706.00;;;;5062378;28;20041;-66
2023/05/09 03:00:38;;;;;;;11.45;9.77;;;;;15.00;98692.00;;;;5051825;28;20476;-66
2023/05/09 03:03:05;;;;;;;11.23;10.02;;;;;14.90;98692.00;;;;5053122;28;20095;-66
2023/05/09 03:05:32;;;;;;;12.45;9.30;;;;;14.90;98683.00;;;;5052604;28;20044;-65
2023/05/09 03:07:59;;;;;;;10.27;9.18;;;;;14.90;98687.00;;;;5051209;28;20106;-65
2023/05/09 03:10:25;;;;;;;11.18;10.00;;;;;14.90;98676.00;;;;5051545;28;20045;-65
2023/05/09 03:12:52;;;;;;;12.02;8.93;;;;;14.80;98669.00;;;;5050873;28;20037;-66
2023/05/09 03:15:19;;;;;;;10.68;9.10;;;;;14.80;98667.00;;;;5052365;28;20045;-65
2023/05/09 03:17:47;;;;;;;13.07;9.30;;;;;14.80;98668.00;;;;5035831;28;20041;-64
2023/05/09 03:20:14;;;;;;;10.15;9.13;;;;;14.80;98672.00;;;;5052309;28;20076;-64
2023/05/09 03:22:41;;;;;;;11.88;9.90;;;;;14.70;98675.00;;;;5052580;28;20508;-65
2023/05/09 03:25:10;;;;;;;11.75;10.55;;;;;14.60;98670.00;;;;5052198;28;20049;-65
2023/05/09 03:27:37;;;;;;;11.88;9.80;;;;;14.60;98661.00;;;;5036009;28;20049;-65
2023/05/09 03:30:07;;;;;;;12.70;10.13;;;;;14.50;98664.00;;;;5054568;28;20049;-64
2023/05/09 03:32:34;;;;;;;13.38;10.52;;;;;14.50;98661.00;;;;5054923;28;20056;-65
2023/05/09 03:35:01;;;;;;;12.60;10.75;;;;;14.60;98660.00;;;;5057778;28;20120;-66
2023/05/09 03:37:28;;;;;;;11.60;10.45;;;;;14.70;98662.00;;;;5055261;28;20048;-63
2023/05/09 03:39:55;;;;;;;12.80;11.43;;;;;14.80;98659.00;;;;5055135;28;20060;-64
2023/05/09 03:42:22;;;;;;;12.23;10.90;;;;;14.90;98670.00;;;;5055229;28;20060;-64
2023/05/09 03:44:51;;;;;;;19.88;16.20;;;;;14.80;98659.00;;;;5055606;28;20053;-64
2023/05/09 03:47:20;;;;;;;13.98;10.38;;;;;14.70;98665.00;;;;5055790;28;20045;-65
2023/05/09 03:49:47;;;;;;;13.25;11.10;;;;;14.80;98662.00;;;;5055048;28;20053;-65
2023/05/09 03:52:16;;;;;;;13.15;10.73;;;;;14.90;98666.00;;;;5055538;28;20099;-63
2023/05/09 03:54:44;;;;;;;11.60;10.40;;;;;15.00;98665.00;;;;5055613;28;20041;-64
2023/05/09 03:57:10;;;;;;;11.13;10.02;;;;;15.10;98668.00;;;;5055196;28;20502;-64
2023/05/09 03:59:37;;;;;;;12.85;11.40;;;;;15.10;98673.00;;;;5039575;28;20128;-65
2023/05/09 04:02:04;;;;;;;11.77;10.68;;;;;15.20;98675.00;;;;5058480;28;20484;-65
2023/05/09 04:04:31;;;;;;;13.15;10.45;;;;;15.20;98673.00;;;;5056334;28;20059;-65
2023/05/09 04:06:58;;;;;;;11.98;10.77;;;;;15.20;98677.00;;;;5055529;28;20052;-64
2023/05/09 04:09:26;;;;;;;11.63;9.80;;;;;15.40;98686.00;;;;5056598;28;20476;-64
2023/05/09 04:11:53;;;;;;;10.95;9.85;;;;;15.40;98678.00;;;;5056213;28;20056;-63
2023/05/09 04:14:20;;;;;;;11.20;10.15;;;;;15.40;98669.00;;;;5057434;28;20051;-63
2023/05/09 04:16:49;;;;;;;11.30;9.95;;;;;15.30;98676.00;;;;5056829;28;20045;-63
2023/05/09 04:19:16;;;;;;;11.93;10.57;;;;;15.30;98679.00;;;;5057614;28;20045;-63
2023/05/09 04:21:42;;;;;;;11.68;9.85;;;;;15.30;98676.00;;;;5059839;28;20045;-63
2023/05/09 04:24:09;;;;;;;12.48;11.18;;;;;15.30;98669.00;;;;5058660;28;20497;-64
2023/05/09 04:26:47;;;;;;;12.05;10.85;;;;;15.20;98668.00;;;;5059355;28;20049;-63
2023/05/09 04:29:17;;;;;;;14.77;11.20;;;;;15.20;98668.00;;;;5058306;28;20053;-64
2023/05/09 04:31:49;;;;;;;15.18;11.55;;;;;15.20;98667.00;;;;5043093;28;20056;-65
2023/05/09 04:34:17;;;;;;;13.68;11.80;;;;;15.20;98666.00;;;;5059153;28;20049;-64
2023/05/09 04:36:43;;;;;;;12.60;11.10;;;;;15.30;98664.00;;;;5059450;28;20563;-65
2023/05/09 04:39:11;;;;;;;13.07;11.57;;;;;15.40;98671.00;;;;5060369;28;20049;-65
2023/05/09 04:41:46;;;;;;;13.32;11.73;;;;;15.40;98669.00;;;;5060351;28;20044;-65
2023/05/09 04:44:15;;;;;;;15.90;12.18;;;;;15.30;98657.00;;;;5058724;28;20041;-66
2023/05/09 04:46:42;;;;;;;13.23;11.20;;;;;15.20;98648.00;;;;5058610;28;20041;-66
2023/05/09 04:49:09;;;;;;;15.02;11.70;;;;;15.20;98648.00;;;;5059552;28;20045;-66
2023/05/09 04:51:36;;;;;;;14.95;11.95;;;;;15.20;98647.00;;;;5058410;28;20049;-65
2023/05/09 04:54:02;;;;;;;17.50;12.40;;;;;15.10;98645.00;;;;5058682;28;20049;-65
2023/05/09 04:56:33;;;;;;;15.52;12.23;;;;;15.10;98639.00;;;;5056795;28;20055;-66
2023/05/09 04:59:00;;;;;;;15.60;12.40;;;;;15.20;98648.00;;;;5055900;28;20059;-65
2023/05/09 05:01:27;;;;;;;16.65;13.35;;;;;15.30;98639.00;;;;5053458;28;20053;-66
2023/05/09 05:03:54;;;;;;;15.50;12.75;;;;;15.30;98647.00;;;;5036890;28;20067;-65
2023/05/09 05:06:21;;;;;;;14.77;12.05;;;;;15.40;98635.00;;;;5053309;28;20071;-66
2023/05/09 05:08:48;;;;;;;17.05;11.02;;;;;15.50;98639.00;;;;5053246;28;20033;-65
2023/05/09 05:11:16;;;;;;;15.93;11.63;;;;;15.50;98648.00;;;;5053382;28;20413;-65
2023/05/09 05:13:43;;;;;;;13.25;11.38;;;;;15.40;98635.00;;;;5055899;28;20041;-65
2023/05/09 05:16:10;;;;;;;13.63;11.32;;;;;15.40;98636.00;;;;5053451;28;20079;-65
2023/05/09 05:18:37;;;;;;;12.20;10.90;;;;;15.50;98633.00;;;;5053243;28;20045;-65
2023/05/09 05:21:04;;;;;;;12.77;11.43;;;;;15.40;98631.00;;;;5036363;28;20087;-66
2023/05/09 05:23:31;;;;;;;12.10;10.45;;;;;15.40;98623.00;;;;5053154;28;20045;-65
2023/05/09 05:25:57;;;;;;;14.40;11.05;;;;;15.40;98623.00;;;;5053053;28;20041;-65
2023/05/09 05:28:24;;;;;;;12.27;10.57;;;;;15.50;98627.00;;;;5037806;28;20052;-65
2023/05/09 05:30:51;;;;;;;12.63;10.10;;;;;15.60;98625.00;;;;5054363;28;20049;-65
2023/05/09 05:33:18;;;;;;;14.43;11.15;;;;;15.70;98620.00;;;;5053927;28;20091;-64
2023/05/09 05:35:45;;;;;;;11.63;10.45;;;;;15.70;98629.00;;;;5056073;28;20522;-65
2023/05/09 05:38:11;;;;;;;14.18;10.88;;;;;15.80;98629.00;;;;5053805;28;20410;-65
2023/05/09 05:40:38;;;;;;;14.02;10.75;;;;;15.70;98619.00;;;;5052627;28;20103;-64
2023/05/09 05:43:06;;;;;;;12.52;10.27;;;;;15.70;98617.00;;;;5052303;28;20045;-64
2023/05/09 05:45:34;;;;;;;11.80;10.60;;;;;15.80;98621.00;;;;5052184;28;20045;-64
2023/05/09 05:48:04;;;;;;;12.18;10.40;;;;;15.70;98622.00;;;;5052610;28;20088;-67
2023/05/09 05:50:31;;;;;;;18.17;10.50;;;;;15.70;98623.00;;;;5051727;28;20159;-66
2023/05/09 05:52:58;;;;;;;15.05;11.15;;;;;15.80;98632.00;;;;5051503;28;20131;-66
2023/05/09 05:55:25;;;;;;;12.73;11.18;;;;;15.80;98627.00;;;;5052415;28;20041;-67
2023/05/09 05:57:51;;;;;;;13.60;11.95;;;;;15.90;98620.00;;;;5051997;28;20065;-65
2023/05/09 06:00:19;;;;;;;14.10;11.63;;;;;16.00;98620.00;;;;5051692;28;20064;-66
2023/05/09 06:02:52;;;;;;;;;;;;;16.10;98615.00;;;;5052327;28;20048;-65
2023/05/09 06:05:43;;;;;;;19.10;12.73;;;;;16.10;98609.00;;;;5052787;28;19921;-65
2023/05/09 06:08:10;;;;;;;17.48;13.45;;;;;16.10;98598.00;;;;5051806;28;20049;-65
2023/05/09 06:10:37;;;;;;;16.40;13.05;;;;;16.20;98600.00;;;;5035068;28;20048;-65
2023/05/09 06:13:03;;;;;;;17.15;13.00;;;;;16.20;98599.00;;;;5035338;28;20045;-65
2023/05/09 06:15:32;;;;;;;17.25;12.65;;;;;16.30;98598.00;;;;5051672;28;20049;-65
2023/05/09 06:17:58;;;;;;;21.85;13.63;;;;;16.40;98597.00;;;;5051705;28;20044;-65
2023/05/09 06:20:26;;;;;;;15.35;11.88;;;;;16.40;98601.00;;;;5051412;28;20071;-65
2023/05/09 06:22:53;;;;;;;16.90;13.50;;;;;16.40;98593.00;;;;5052709;28;20047;-65
2023/05/09 06:25:19;;;;;;;14.57;12.75;;;;;16.30;98600.00;;;;5051361;28;20049;-65
2023/05/09 06:27:46;;;;;;;18.00;12.00;;;;;16.30;98598.00;;;;5052633;28;20045;-63
2023/05/09 06:30:13;;;;;;;14.20;11.90;;;;;16.50;98594.00;;;;5051168;28;20049;-64
2023/05/09 06:32:52;;;;;;;14.88;12.20;;;;;16.60;98585.00;;;;5052775;28;20045;-65
2023/05/09 06:35:19;;;;;;;16.63;12.55;;;;;16.60;98582.00;;;;5052247;28;20049;-64
2023/05/09 06:37:45;;;;;;;17.05;12.73;;;;;16.60;98580.00;;;;5051205;28;20041;-65
2023/05/09 06:40:14;;;;;;;16.10;12.02;;;;;16.60;98579.00;;;;5051033;28;20055;-66
2023/05/09 06:42:41;;;;;;;13.93;11.75;;;;;16.60;98573.00;;;;5034849;28;20491;-66
2023/05/09 06:45:08;;;;;;;14.57;12.20;;;;;16.60;98569.00;;;;5052421;28;20040;-66
2023/05/09 06:47:34;;;;;;;16.52;12.50;;;;;16.60;98574.00;;;;5052533;28;20486;-66
2023/05/09 06:50:01;;;;;;;15.52;12.50;;;;;16.70;98579.00;;;;5052254;28;20041;-66
2023/05/09 06:52:27;;;;;;;16.00;12.95;;;;;16.80;98574.00;;;;5059571;28;20042;-65
2023/05/09 06:54:54;;;;;;;16.27;11.80;;;;;16.90;98571.00;;;;5074258;28;20049;-65
2023/05/09 06:57:21;;;;;;;14.82;12.52;;;;;17.20;98567.00;;;;5066523;28;20041;-65
2023/05/09 06:59:47;;;;;;;15.43;12.73;;;;;17.30;98557.00;;;;5052718;28;20037;-65
2023/05/09 07:02:14;;;;;;;18.88;13.32;;;;;17.40;98549.00;;;;5051450;28;20398;-65
2023/05/09 07:04:40;;;;;;;17.52;14.65;;;;;17.50;98553.00;;;;5033664;28;20051;-65
2023/05/09 07:07:07;;;;;;;16.45;13.70;;;;;17.80;98546.00;;;;5052345;28;20045;-65
2023/05/09 07:09:33;;;;;;;16.42;13.32;;;;;17.90;98541.00;;;;5052066;28;20037;-65
2023/05/09 07:12:00;;;;;;;16.63;12.38;;;;;17.90;98544.00;;;;5052386;28;20045;-65
2023/05/09 07:14:27;;;;;;;16.92;12.48;;;;;18.00;98537.00;;;;5052085;28;20053;-64
2023/05/09 07:16:53;;;;;;;17.63;13.93;;;;;18.10;98540.00;;;;5052385;28;20076;-64
2023/05/09 07:19:35;;;;;;;18.27;13.48;;;;;18.30;98536.00;;;;5051904;28;20566;-65
2023/05/09 07:22:02;;;;;;;16.08;13.70;;;;;18.40;98526.00;;;;5050937;28;20513;-65
2023/05/09 07:24:28;;;;;;;16.52;13.57;;;;;18.60;98523.00;;;;5050880;28;20045;-66
2023/05/09 07:26:55;;;;;;;15.80;13.30;;;;;19.00;98517.00;;;;5052015;28;20048;-64
2023/05/09 07:29:22;;;;;;;14.07;12.23;;;;;19.30;98519.00;;;;5050783;28;20462;-67
2023/05/09 07:31:48;;;;;;;16.05;12.25;;;;;19.30;98511.00;;;;5052529;28;20690;-67
2023/05/09 07:34:15;;;;;;;14.57;11.40;;;;;19.60;98511.00;;;;5050873;28;20493;-66
2023/05/09 07:36:42;;;;;;;13.93;10.90;;;;;19.80;98507.00;;;;5052418;28;20044;-65
2023/05/09 07:39:09;;;;;;;13.48;9.93;;;;;19.90;98517.00;;;;5050560;28;20079;-65
2023/05/09 07:41:36;;;;;;;13.38;10.05;;;;;19.90;98523.00;;;;5052181;28;20045;-66
2023/05/09 07:44:02;;;;;;;12.80;9.52;;;;;19.90;98521.00;;;;5050848;28;20560;-66
2023/05/09 07:46:29;;;;;;;13.23;9.63;;;;;20.10;98517.00;;;;5050845;28;20142;-66
2023/05/09 07:48:55;;;;;;;8.77;7.88;;;;;20.30;98505.00;;;;5051658;28;20075;-63
2023/05/09 07:51:23;;;;;;;7.53;6.70;;;;;20.50;98516.00;;;;5051904;28;20055;-65
2023/05/09 07:53:50;;;;;;;9.07;6.47;;;;;20.70;98514.00;;;;5050742;28;20552;-66
2023/05/09 07:56:16;;;;;;;6.40;5.80;;;;;20.80;98509.00;;;;5052854;28;20512;-64
2023/05/09 07:58:43;;;;;;;11.07;6.97;;;;;20.90;98509.00;;;;5051794;28;20091;-65
2023/05/09 08:01:09;;;;;;;6.75;5.47;;;;;20.80;98504.00;;;;5034068;28;20057;-65
2023/05/09 08:03:36;;;;;;;7.53;5.60;;;;;20.80;98496.00;;;;5051904;28;20505;-65
2023/05/09 08:06:03;;;;;;;6.05;4.95;;;;;20.80;98505.00;;;;5051764;28;20052;-65
2023/05/09 08:08:29;;;;;;;6.40;4.82;;;;;20.80;98493.00;;;;5052164;28;20137;-65
2023/05/09 08:10:56;;;;;;;6.07;5.38;;;;;20.90;98481.00;;;;5033807;28;20041;-65
2023/05/09 08:13:23;;;;;;;5.85;5.20;;;;;21.10;98478.00;;;;5050660;28;20049;-65
2023/05/09 08:15:50;;;;;;;6.28;5.20;;;;;21.30;98478.00;;;;5052850;28;20076;-65
2023/05/09 08:18:17;;;;;;;5.38;4.88;;;;;21.40;98472.00;;;;5056068;28;20115;-65
2023/05/09 08:20:43;;;;;;;5.72;5.13;;;;;21.50;98472.00;;;;5055658;28;20049;-66
2023/05/09 08:23:10;;;;;;;8.25;4.78;;;;;21.40;98466.00;;;;5037223;28;20053;-66
2023/05/09 08:25:37;;;;;;;6.07;4.85;;;;;21.50;98461.00;;;;5054495;28;20413;-66
2023/05/09 08:28:04;;;;;;;6.63;4.90;;;;;21.60;98470.00;;;;5053969;28;20114;-65
2023/05/09 08:30:31;;;;;;;4.63;4.22;;;;;21.70;98468.00;;;;5036869;28;20053;-65
2023/05/09 08:32:57;;;;;;;4.97;4.47;;;;;21.70;98470.00;;;;5055114;28;20045;-66
2023/05/09 08:35:24;;;;;;;6.82;4.50;;;;;21.80;98467.00;;;;5054940;28;20076;-65
2023/05/09 08:37:51;;;;;;;4.72;4.22;;;;;21.60;98465.00;;;;5037025;28;20464;-65
2023/05/09 08:40:18;;;;;;;4.75;4.18;;;;;21.60;98452.00;;;;5053668;28;20106;-65
2023/05/09 08:42:44;;;;;;;7.93;3.83;;;;;21.70;98458.00;;;;5054719;28;20055;-65
2023/05/09 08:45:15;;;;;;;6.03;4.60;;;;;21.70;98442.00;;;;5053814;28;20056;-65
2023/05/09 08:47:43;;;;;;;7.07;4.50;;;;;21.80;98436.00;;;;5053799;28;20456;-65
2023/05/09 08:50:13;;;;;;;4.57;4.05;;;;;22.00;98445.00;;;;5054658;28;20043;-66
2023/05/09 08:52:41;;;;;;;5.70;4.82;;;;;22.10;98434.00;;;;5055130;28;20048;-65
2023/05/09 08:55:07;;;;;;;5.72;4.05;;;;;22.20;98437.00;;;;5054862;28;20110;-65
2023/05/09 08:57:34;;;;;;;5.70;4.70;;;;;22.30;98440.00;;;;5053792;28;20056;-65
2023/05/09 09:00:04;;;;;;;4.95;3.83;;;;;22.30;98432.00;;;;5053820;28;20041;-66
2023/05/09 09:02:32;;;;;;;6.65;4.70;;;;;22.40;98432.00;;;;5056477;28;20068;-66
2023/05/09 09:04:59;;;;;;;5.78;4.45;;;;;22.40;98430.00;;;;5060994;28;20053;-64
2023/05/09 09:07:26;;;;;;;6.35;4.57;;;;;22.50;98430.00;;;;5072349;28;20061;-65
2023/05/09 09:09:56;;;;;;;6.35;4.32;;;;;22.50;98427.00;;;;5073647;28;20123;-65
2023/05/09 09:12:23;;;;;;;5.95;4.40;;;;;22.40;98437.00;;;;5049658;28;20059;-65
2023/05/09 09:14:54;;;;;;;4.47;4.07;;;;;22.30;98431.00;;;;5075908;28;20114;-65
2023/05/09 09:17:26;;;;;;;6.22;4.50;;;;;22.30;98420.00;;;;5075153;28;20056;-65
2023/05/09 09:19:56;;;;;;;6.22;4.50;;;;;22.20;98418.00;;;;5075088;28;20102;-65
2023/05/09 09:22:26;;;;;;;6.18;4.80;;;;;22.10;98418.00;;;;5073748;28;20040;-65
2023/05/09 09:24:52;;;;;;;5.57;4.15;;;;;22.00;98415.00;;;;5074374;28;20063;-65
2023/05/09 09:27:19;;;;;;;5.03;4.22;;;;;22.00;98415.00;;;;5056329;28;20075;-65
2023/05/09 09:29:45;;;;;;;4.28;3.35;;;;;22.00;98409.00;;;;5073520;28;20045;-65
2023/05/09 09:32:12;;;;;;;6.88;3.58;;;;;22.00;98395.00;;;;5070488;28;20063;-65
2023/05/09 09:34:39;;;;;;;3.53;3.22;;;;;22.00;98399.00;;;;5052584;28;20064;-65
2023/05/09 09:37:05;;;;;;;4.65;4.15;;;;;22.00;98392.00;;;;5053680;28;20044;-65
2023/05/09 09:39:32;;;;;;;4.80;3.10;;;;;22.10;98381.00;;;;5053289;28;20224;-65
2023/05/09 09:42:09;;;;;;;3.25;2.90;;;;;22.20;98380.00;;;;5052395;28;20048;-65
2023/05/09 09:44:36;;;;;;;3.35;2.95;;;;;22.30;98378.00;;;;5053788;28;20037;-66
2023/05/09 09:47:02;;;;;;;3.42;3.03;;;;;22.30;98384.00;;;;5053418;28;20052;-66
2023/05/09 09:49:29;;;;;;;3.58;3.25;;;;;22.40;98377.00;;;;5052305;28;20195;-65
2023/05/09 09:51:57;;;;;;;3.88;3.25;;;;;22.30;98364.00;;;;5053637;28;20506;-65
2023/05/09 09:54:27;;;;;;;4.22;3.78;;;;;22.40;98364.00;;;;5054373;28;20052;-65
2023/05/09 09:56:55;;;;;;;5.28;3.53;;;;;22.60;98352.00;;;;5052345;28;20498;-66
2023/05/09 09:59:24;;;;;;;4.57;3.00;;;;;22.90;98355.00;;;;5053415;28;20053;-66
2023/05/09 10:01:54;;;;;;;4.55;2.85;;;;;23.10;98343.00;;;;5052153;28;20049;-66
2023/05/09 10:04:21;;;;;;;3.00;2.72;;;;;23.20;98345.00;;;;5051858;28;20080;-66
2023/05/09 10:07:04;;;;;;;3.63;3.13;;;;;23.40;98339.00;;;;5053317;28;20036;-66
2023/05/09 10:09:32;;;;;;;2.67;2.47;;;;;23.50;98346.00;;;;5052195;28;20045;-67
2023/05/09 10:12:05;;;;;;;3.20;2.90;;;;;23.60;98340.00;;;;5052414;28;20064;-68
2023/05/09 10:14:33;;;;;;;3.28;2.97;;;;;23.60;98336.00;;;;5052230;28;20075;-67
2023/05/09 10:17:02;;;;;;;7.03;3.35;;;;;23.50;98337.00;;;;5052985;28;20041;-66
2023/05/09 10:19:30;;;;;;;3.95;2.70;;;;;23.40;98333.00;;;;5054709;28;20592;-68
2023/05/09 10:22:04;;;;;;;3.90;3.50;;;;;23.20;98332.00;;;;5054590;28;20037;-67
2023/05/09 10:24:40;;;;;;;3.65;3.00;;;;;23.10;98318.00;;;;5052410;28;20136;-66
2023/05/09 10:27:10;;;;;;;4.20;3.25;;;;;23.10;98325.00;;;;5053200;28;20052;-66
2023/05/09 10:29:43;;;;;;;5.10;3.03;;;;;23.10;98312.00;;;;5035967;28;20490;-66
2023/05/09 10:32:16;;;;;;;7.20;4.28;;;;;23.10;98322.00;;;;5052997;28;20108;-65
2023/05/09 10:34:47;;;;;;;3.78;2.85;;;;;22.90;98316.00;;;;5053751;28;20459;-65
2023/05/09 10:37:15;;;;;;;4.03;3.20;;;;;22.90;98317.00;;;;5036601;28;20053;-65
2023/05/09 10:39:42;;;;;;;4.28;3.25;;;;;22.90;98305.00;;;;5052969;28;20076;-66
2023/05/09 10:42:11;;;;;;;3.90;3.20;;;;;23.00;98295.00;;;;5054195;28;20049;-65
2023/05/09 10:44:37;;;;;;;3.10;2.90;;;;;23.10;98295.00;;;;5053745;28;20071;-65
2023/05/09 10:47:05;;;;;;;3.17;2.88;;;;;23.40;98294.00;;;;5056552;28;20100;-66
2023/05/09 10:49:33;;;;;;;4.15;2.83;;;;;23.60;98286.00;;;;5056719;28;20048;-67
2023/05/09 10:52:02;;;;;;;2.97;2.47;;;;;23.60;98285.00;;;;5061677;28;20056;-66
2023/05/09 10:54:32;;;;;;;4.32;2.80;;;;;23.80;98285.00;;;;5043496;28;20050;-65
2023/05/09 10:56:59;;;;;;;3.47;2.50;;;;;23.60;98287.00;;;;5058456;28;20049;-64
2023/05/09 10:59:35;;;;;;;2.85;2.58;;;;;23.60;98272.00;;;;5058585;28;20041;-64
2023/05/09 11:02:03;;;;;;;3.42;3.13;;;;;23.60;98269.00;;;;5055496;28;20143;-64
2023/05/09 11:04:31;;;;;;;3.95;2.95;;;;;23.60;98258.00;;;;5054094;28;20045;-64
2023/05/09 11:06:59;;;;;;;9.85;2.65;;;;;23.80;98254.00;;;;5053841;28;20414;-64
2023/05/09 11:09:34;;;;;;;4.43;2.92;;;;;24.10;98237.00;;;;5053031;28;20047;-64
2023/05/09 11:12:04;;;;;;;3.00;2.70;;;;;24.30;98236.00;;;;5052189;28;20049;-64
2023/05/09 11:14:36;;;;;;;2.83;2.63;;;;;24.50;98234.00;;;;5053381;28;20040;-64
2023/05/09 11:17:03;;;;;;;5.18;2.88;;;;;24.60;98235.00;;;;5051855;28;20048;-64
2023/05/09 11:19:45;;;;;;;3.10;2.72;;;;;24.70;98235.00;;;;5053206;28;20049;-64
2023/05/09 11:22:13;;;;;;;5.10;2.60;;;;;24.70;98233.00;;;;5053280;28;20049;-65
2023/05/09 11:24:48;;;;;;;4.07;2.85;;;;;24.80;98237.00;;;;5053960;28;20048;-64
2023/05/09 11:27:27;;;;;;;5.30;2.90;;;;;24.70;98222.00;;;;5052604;28;20075;-65
2023/05/09 11:29:55;;;;;;;2.38;2.17;;;;;24.60;98217.00;;;;5051866;28;20044;-63
2023/05/09 11:32:29;;;;;;;3.65;2.10;;;;;24.80;98219.00;;;;5053173;28;20045;-64
2023/05/09 11:35:13;;;;;;;2.13;1.90;;;;;25.00;98213.00;;;;5054246;28;20055;-64
2023/05/09 11:37:45;;;;;;;2.10;1.90;;;;;25.20;98201.00;;;;5035060;28;20135;-64
2023/05/09 11:40:13;;;;;;;3.65;2.05;;;;;25.20;98203.00;;;;5051372;28;20044;-64
2023/05/09 11:42:46;;;;;;;7.95;2.55;;;;;25.30;98195.00;;;;5052698;28;20053;-64
2023/05/09 11:45:13;;;;;;;2.13;1.90;;;;;25.40;98191.00;;;;5051306;28;20049;-64
2023/05/09 11:47:40;;;;;;;2.17;1.85;;;;;25.60;98181.00;;;;5051539;28;20053;-64
2023/05/09 11:50:12;;;;;;;3.22;2.10;;;;;25.70;98184.00;;;;5035652;28;20056;-63
2023/05/09 11:52:39;;;;;;;4.70;1.95;;;;;25.70;98179.00;;;;5056220;28;20525;-64
2023/05/09 11:55:12;;;;;;;4.68;1.92;;;;;25.60;98181.00;;;;5055176;28;20053;-63
2023/05/09 11:57:48;;;;;;;2.13;1.92;;;;;25.50;98182.00;;;;5055173;28;20052;-63
2023/05/09 12:00:17;;;;;;;2.53;1.95;;;;;25.40;98174.00;;;;5054735;28;20490;-65
2023/05/09 12:02:46;;;;;;;2.63;2.10;;;;;25.10;98167.00;;;;5055874;28;20049;-65
2023/05/09 12:05:15;;;;;;;2.25;2.08;;;;;25.00;98166.00;;;;5056125;28;20108;-64
2023/05/09 12:07:43;;;;;;;1.95;1.85;;;;;24.90;98161.00;;;;5055914;28;20048;-63
2023/05/09 12:10:18;;;;;;;2.75;2.00;;;;;24.80;98163.00;;;;5055718;28;20124;-63
2023/05/09 12:12:50;;;;;;;3.95;2.10;;;;;24.70;98147.00;;;;5054571;28;20052;-63